createdAt,value
2019-01-13T00:02:21.101Z,13.67
2019-01-13T00:04:52.978Z,13.27
2019-01-13T00:07:26.663Z,13.77
2019-01-13T00:09:58.728Z,16.13
2019-01-13T00:12:35.559Z,13.97
2019-01-13T00:15:04.597Z,16.63
2019-01-13T00:17:36.397Z,16.20
2019-01-13T00:20:09.645Z,17.17
2019-01-13T00:22:41.292Z,17.93
2019-01-13T00:25:13.431Z,17.73
2019-01-13T00:27:45.567Z,17.27
2019-01-13T00:30:19.412Z,17.57
2019-01-13T00:32:51.856Z,15.63
2019-01-13T00:35:23.882Z,14.27
2019-01-13T00:37:55.707Z,14.90
2019-01-13T00:40:27.849Z,19.27
2019-01-13T00:42:59.813Z,16.83
2019-01-13T00:45:31.866Z,14.13
2019-01-13T00:48:04.983Z,14.70
2019-01-13T00:50:36.520Z,15.33
2019-01-13T00:53:09.034Z,17.27
2019-01-13T00:55:40.611Z,17.33
2019-01-13T00:58:12.238Z,15.43
2019-01-13T01:00:44.882Z,16.67
2019-01-13T01:03:17.256Z,15.60
2019-01-13T01:05:50.456Z,15.83
2019-01-13T01:08:22.308Z,15.20
2019-01-13T01:10:55.176Z,16.90
2019-01-13T01:13:26.752Z,15.80
2019-01-13T01:15:59.233Z,14.93
2019-01-13T01:18:31.149Z,13.67
2019-01-13T01:21:02.730Z,15.83
2019-01-13T01:23:36.350Z,15.17
2019-01-13T01:26:08.268Z,15.73
2019-01-13T01:28:40.294Z,16.33
2019-01-13T01:31:12.855Z,15.93
2019-01-13T01:33:44.920Z,16.70
2019-01-13T01:36:17.648Z,17.60
2019-01-13T01:38:49.895Z,16.27
2019-01-13T01:41:21.676Z,16.17
2019-01-13T01:43:53.644Z,14.70
2019-01-13T01:46:26.092Z,15.40
2019-01-13T01:48:58.891Z,16.10
2019-01-13T01:51:31.058Z,15.17
2019-01-13T01:54:03.011Z,15.33
2019-01-13T01:56:34.849Z,15.63
2019-01-13T01:59:09.556Z,17.03
2019-01-13T02:01:41.269Z,17.00
2019-01-13T02:04:15.607Z,17.30
2019-01-13T02:06:47.444Z,17.07
2019-01-13T02:09:19.431Z,17.87
2019-01-13T02:11:51.918Z,16.93
2019-01-13T02:14:24.182Z,17.20
2019-01-13T02:16:57.795Z,17.60
2019-01-13T02:19:30.215Z,17.50
2019-01-13T02:22:02.398Z,17.93
2019-01-13T02:24:35.356Z,18.23
2019-01-13T02:27:08.254Z,17.00
2019-01-13T02:29:41.545Z,18.53
2019-01-13T02:32:13.687Z,18.37
2019-01-13T02:34:46.049Z,17.80
2019-01-13T02:37:18.532Z,17.97
2019-01-13T02:39:50.864Z,17.53
2019-01-13T02:42:23.211Z,17.23
2019-01-13T02:44:55.294Z,17.77
2019-01-13T02:47:26.998Z,18.00
2019-01-13T02:49:59.089Z,17.70
2019-01-13T02:52:31.213Z,17.30
2019-01-13T02:55:05.121Z,16.63
2019-01-13T02:57:36.908Z,18.33
2019-01-13T03:00:12.225Z,18.13
2019-01-13T03:02:44.294Z,19.00
2019-01-13T03:05:17.167Z,19.77
2019-01-13T03:07:49.148Z,20.37
2019-01-13T03:10:25.677Z,19.90
2019-01-13T03:12:57.710Z,18.80
2019-01-13T03:15:30.002Z,19.87
2019-01-13T03:18:02.063Z,18.43
2019-01-13T03:20:34.237Z,19.90
2019-01-13T03:23:06.107Z,19.60
2019-01-13T03:25:38.477Z,20.57
2019-01-13T03:28:12.853Z,19.87
2019-01-13T03:30:44.416Z,21.40
2019-01-13T03:33:16.783Z,22.00
2019-01-13T03:35:48.603Z,21.90
2019-01-13T03:38:20.356Z,22.90
2019-01-13T03:40:52.249Z,22.23
2019-01-13T03:43:24.660Z,22.33
2019-01-13T03:46:00.793Z,22.07
2019-01-13T03:48:32.931Z,20.23
2019-01-13T03:51:04.949Z,22.80
2019-01-13T03:53:37.566Z,21.73
2019-01-13T03:56:09.637Z,22.93
2019-01-13T03:58:41.752Z,20.30
2019-01-13T04:01:18.573Z,22.70
2019-01-13T04:03:47.900Z,22.30
2019-01-13T04:06:20.031Z,23.10
2019-01-13T04:08:51.953Z,24.63
2019-01-13T04:11:24.632Z,24.10
2019-01-13T04:13:57.925Z,24.87
2019-01-13T04:16:31.486Z,23.97
2019-01-13T04:19:03.957Z,23.97
2019-01-13T04:21:35.609Z,24.67
2019-01-13T04:24:09.183Z,24.93
2019-01-13T04:26:43.150Z,25.27
2019-01-13T04:29:15.808Z,25.57
2019-01-13T04:31:48.904Z,23.73
2019-01-13T04:34:21.842Z,24.07
2019-01-13T04:36:56.863Z,23.50
2019-01-13T04:39:28.596Z,22.93
2019-01-13T04:42:00.647Z,22.43
2019-01-13T04:44:32.216Z,21.83
2019-01-13T04:47:04.311Z,21.07
2019-01-13T04:49:36.106Z,21.53
2019-01-13T04:52:08.979Z,20.67
2019-01-13T04:54:41.983Z,16.23
2019-01-13T04:57:16.464Z,20.37
2019-01-13T04:59:50.850Z,20.70
2019-01-13T05:02:23.271Z,20.57
2019-01-13T05:04:55.504Z,20.30
2019-01-13T05:07:27.563Z,20.07
2019-01-13T05:09:59.764Z,18.67
2019-01-13T05:12:31.839Z,21.07
2019-01-13T05:15:03.512Z,20.37
2019-01-13T05:17:35.462Z,19.70
2019-01-13T05:20:09.916Z,18.70
2019-01-13T05:22:41.879Z,17.20
2019-01-13T05:25:14.458Z,17.03
2019-01-13T05:27:46.510Z,16.10
2019-01-13T05:30:20.259Z,16.07
2019-01-13T05:32:52.480Z,15.57
2019-01-13T05:35:25.733Z,17.00
2019-01-13T05:37:57.743Z,16.07
2019-01-13T05:40:29.794Z,17.43
2019-01-13T05:43:02.790Z,17.33
2019-01-13T05:45:34.749Z,16.87
2019-01-13T05:48:06.865Z,17.67
2019-01-13T05:50:39.137Z,16.80
2019-01-13T05:53:12.552Z,17.73
2019-01-13T05:55:45.178Z,15.97
2019-01-13T05:58:17.728Z,17.83
2019-01-13T06:00:49.795Z,18.33
2019-01-13T06:03:22.078Z,18.97
2019-01-13T06:05:53.948Z,19.63
2019-01-13T06:08:26.209Z,19.27
2019-01-13T06:10:58.758Z,18.60
2019-01-13T06:13:31.282Z,21.53
2019-01-13T06:16:03.510Z,19.67
2019-01-13T06:18:36.821Z,21.37
2019-01-13T06:21:09.169Z,18.60
2019-01-13T06:23:43.590Z,19.27
2019-01-13T06:26:16.132Z,19.43
2019-01-13T06:28:48.704Z,19.57
2019-01-13T06:31:20.951Z,18.07
2019-01-13T06:33:53.690Z,17.77
2019-01-13T06:36:26.083Z,16.33
2019-01-13T06:38:58.533Z,17.60
2019-01-13T06:41:31.206Z,19.07
2019-01-13T06:44:03.671Z,17.50
2019-01-13T06:46:36.065Z,17.70
2019-01-13T06:49:09.741Z,16.43
2019-01-13T06:51:42.468Z,16.43
2019-01-13T06:54:15.006Z,15.13
2019-01-13T06:56:47.356Z,16.37
2019-01-13T06:59:19.686Z,16.53
2019-01-13T07:01:51.308Z,14.83
2019-01-13T07:04:24.338Z,13.70
2019-01-13T07:07:04.765Z,14.53
2019-01-13T07:09:36.905Z,13.90
2019-01-13T07:12:08.873Z,13.03
2019-01-13T07:14:41.262Z,11.97
2019-01-13T07:17:13.554Z,11.90
2019-01-13T07:19:46.154Z,10.70
2019-01-13T07:22:18.560Z,10.70
2019-01-13T07:24:51.175Z,10.23
2019-01-13T07:27:23.371Z,10.00
2019-01-13T07:29:55.920Z,9.60
2019-01-13T07:32:28.412Z,10.63
2019-01-13T07:35:01.922Z,9.50
2019-01-13T07:37:35.494Z,9.63
2019-01-13T07:40:14.638Z,8.93
2019-01-13T07:42:49.183Z,9.83
2019-01-13T07:45:27.734Z,8.83
2019-01-13T07:48:02.497Z,9.73
2019-01-13T07:50:36.815Z,9.60
2019-01-13T07:53:12.200Z,10.30
2019-01-13T07:55:46.546Z,10.37
2019-01-13T07:58:23.296Z,9.60
2019-01-13T08:00:58.890Z,9.53
2019-01-13T08:03:33.380Z,10.33
2019-01-13T08:06:09.407Z,11.30
2019-01-13T08:08:44.871Z,11.27
2019-01-13T08:11:19.575Z,8.53
2019-01-13T08:13:52.970Z,11.73
2019-01-13T08:16:26.695Z,13.70
2019-01-13T08:18:59.745Z,11.97
2019-01-13T08:21:33.543Z,12.53
2019-01-13T08:24:07.270Z,13.67
2019-01-13T08:26:40.980Z,12.30
2019-01-13T08:29:13.853Z,12.97
2019-01-13T08:31:46.459Z,13.27
2019-01-13T08:34:20.636Z,15.17
2019-01-13T08:36:52.980Z,23.13
2019-01-13T08:39:25.636Z,17.83
2019-01-13T08:41:57.897Z,20.30
2019-01-13T08:44:30.615Z,21.83
2019-01-13T08:47:03.581Z,26.93
2019-01-13T08:49:36.396Z,22.07
2019-01-13T08:52:12.207Z,22.57
2019-01-13T08:54:47.415Z,21.67
2019-01-13T08:57:20.842Z,23.50
2019-01-13T08:59:55.075Z,22.63
2019-01-13T09:02:32.318Z,26.00
2019-01-13T09:05:05.825Z,25.03
2019-01-13T09:07:38.744Z,24.63
2019-01-13T09:10:14.005Z,20.53
2019-01-13T09:12:56.384Z,21.83
2019-01-13T09:15:26.258Z,24.27
2019-01-13T09:18:01.419Z,20.03
2019-01-13T09:20:37.654Z,22.47
2019-01-13T09:23:13.147Z,22.50
2019-01-13T09:25:47.695Z,26.67
2019-01-13T09:28:21.372Z,23.70
2019-01-13T09:30:55.553Z,26.47
2019-01-13T09:33:29.396Z,23.10
2019-01-13T09:36:02.935Z,28.27
2019-01-13T09:38:40.115Z,23.63
2019-01-13T09:41:14.895Z,23.63
2019-01-13T09:43:49.174Z,26.90
2019-01-13T09:46:23.697Z,29.37
2019-01-13T09:48:59.749Z,26.70
2019-01-13T09:51:33.552Z,27.70
2019-01-13T09:54:10.771Z,24.73
2019-01-13T09:56:47.334Z,26.17
2019-01-13T09:59:22.661Z,26.23
2019-01-13T10:01:58.214Z,24.43
2019-01-13T10:04:31.184Z,21.97
2019-01-13T10:07:05.971Z,26.13
2019-01-13T10:09:42.586Z,26.27
2019-01-13T10:12:17.923Z,17.93
2019-01-13T10:14:54.436Z,18.53
2019-01-13T10:17:27.786Z,20.67
2019-01-13T10:20:06.016Z,23.63
2019-01-13T10:22:39.998Z,22.77
2019-01-13T10:25:12.666Z,22.03
2019-01-13T10:27:44.903Z,23.37
2019-01-13T10:30:20.835Z,19.60
2019-01-13T10:32:55.164Z,19.00
2019-01-13T10:35:34.004Z,21.00
2019-01-13T10:38:06.608Z,21.40
2019-01-13T10:40:38.644Z,21.63
2019-01-13T10:43:10.684Z,19.30
2019-01-13T10:45:49.675Z,20.67
2019-01-13T10:48:26.922Z,18.43
2019-01-13T10:51:00.089Z,16.77
2019-01-13T10:53:33.687Z,20.33
2019-01-13T10:56:06.193Z,18.23
2019-01-13T10:58:38.402Z,17.60
2019-01-13T11:01:12.039Z,16.40
2019-01-13T11:03:44.771Z,14.90
2019-01-13T11:06:17.247Z,17.17
2019-01-13T11:08:52.245Z,16.07
2019-01-13T11:11:25.223Z,19.00
2019-01-13T11:13:58.863Z,16.80
2019-01-13T11:16:36.274Z,14.43
2019-01-13T11:19:08.969Z,16.53
2019-01-13T11:21:46.505Z,14.80
2019-01-13T11:24:17.636Z,12.53
2019-01-13T11:26:51.083Z,11.53
2019-01-13T11:29:21.852Z,13.43
2019-01-13T11:31:57.097Z,11.33
2019-01-13T11:34:28.694Z,11.83
2019-01-13T11:37:02.950Z,13.50
2019-01-13T11:39:34.076Z,14.57
2019-01-13T11:42:06.551Z,11.73
2019-01-13T11:44:37.193Z,20.03
2019-01-13T11:47:08.568Z,16.83
2019-01-13T11:49:39.327Z,20.03
2019-01-13T11:52:10.035Z,17.80
2019-01-13T11:54:42.389Z,18.40
2019-01-13T11:57:13.049Z,19.33
2019-01-13T12:02:32.644Z,17.37
2019-01-13T12:05:02.239Z,15.67
2019-01-13T12:07:33.235Z,17.00
2019-01-13T12:10:04.804Z,15.73
2019-01-13T12:12:35.645Z,21.00
2019-01-13T12:15:09.237Z,19.63
2019-01-13T12:17:41.249Z,22.97
2019-01-13T12:20:14.543Z,20.30
2019-01-13T12:22:46.566Z,15.57
2019-01-13T12:25:17.987Z,19.47
2019-01-13T12:27:48.733Z,16.67
2019-01-13T12:30:24.806Z,16.40
2019-01-13T12:32:57.920Z,16.97
2019-01-13T12:35:28.585Z,18.63
2019-01-13T12:37:59.373Z,20.63
2019-01-13T12:40:32.058Z,15.37
2019-01-13T12:43:04.050Z,21.47
2019-01-13T12:45:34.912Z,22.77
2019-01-13T12:48:06.451Z,21.03
2019-01-13T12:50:39.314Z,21.07
2019-01-13T12:53:10.568Z,19.93
2019-01-13T12:55:41.230Z,19.10
2019-01-13T12:58:14.140Z,16.63
2019-01-13T13:00:44.886Z,14.57
2019-01-13T13:03:16.541Z,17.90
2019-01-13T13:05:48.324Z,17.00
2019-01-13T13:08:19.242Z,21.57
2019-01-13T13:10:54.440Z,18.27
2019-01-13T13:13:25.521Z,17.47
2019-01-13T13:15:56.977Z,15.43
2019-01-13T13:18:29.353Z,15.27
2019-01-13T13:21:00.293Z,18.17
2019-01-13T13:23:31.132Z,23.00
2019-01-13T13:26:01.997Z,15.20
2019-01-13T13:28:32.738Z,12.63
2019-01-13T13:31:04.705Z,17.47
2019-01-13T13:33:38.933Z,16.47
2019-01-13T13:36:10.697Z,11.47
2019-01-13T13:38:41.311Z,14.83
2019-01-13T13:41:11.934Z,19.00
2019-01-13T13:43:41.594Z,12.67
2019-01-13T13:46:12.215Z,14.67
2019-01-13T13:48:43.214Z,13.20
2019-01-13T13:51:14.635Z,16.90
2019-01-13T13:53:45.390Z,15.67
2019-01-13T13:56:16.084Z,15.83
2019-01-13T13:58:46.935Z,15.87
2019-01-13T14:01:18.012Z,18.23
2019-01-13T14:03:48.738Z,19.10
2019-01-13T14:06:19.369Z,21.77
2019-01-13T14:08:50.023Z,21.63
2019-01-13T14:11:20.679Z,17.87
2019-01-13T14:13:51.529Z,14.17
2019-01-13T14:16:22.221Z,15.67
2019-01-13T14:18:52.964Z,14.87
2019-01-13T14:21:23.610Z,13.30
2019-01-13T14:23:54.220Z,16.13
2019-01-13T14:26:25.031Z,13.80
2019-01-13T14:28:57.366Z,11.73
2019-01-13T14:31:27.900Z,16.00
2019-01-13T14:33:58.640Z,16.40
2019-01-13T14:36:32.812Z,17.63
2019-01-13T14:39:07.711Z,22.37
2019-01-13T14:41:38.446Z,14.57
2019-01-13T14:44:09.327Z,17.47
2019-01-13T14:46:39.880Z,18.97
2019-01-13T14:49:11.036Z,15.83
2019-01-13T14:51:41.831Z,16.17
2019-01-13T14:54:12.464Z,17.10
2019-01-13T14:56:43.152Z,18.27
2019-01-13T14:59:14.042Z,20.90
2019-01-13T15:01:44.664Z,14.27
2019-01-13T15:04:15.402Z,10.37
2019-01-13T15:06:46.212Z,8.60
2019-01-13T15:09:16.923Z,7.03
2019-01-13T15:11:47.695Z,7.10
2019-01-13T15:14:19.517Z,6.73
2019-01-13T15:16:50.244Z,6.50
2019-01-13T15:19:20.886Z,7.17
2019-01-13T15:21:51.606Z,7.17
2019-01-13T15:24:22.165Z,6.07
2019-01-13T15:26:55.243Z,6.87
2019-01-13T15:29:25.906Z,6.77
2019-01-13T15:31:56.723Z,7.00
2019-01-13T15:34:28.660Z,7.27
2019-01-13T15:36:59.295Z,6.63
2019-01-13T15:39:30.018Z,6.87
2019-01-13T15:42:00.667Z,6.83
2019-01-13T15:44:31.328Z,6.80
2019-01-13T15:47:03.027Z,7.90
2019-01-13T15:49:33.756Z,7.50
2019-01-13T15:52:04.588Z,7.03
2019-01-13T15:54:36.567Z,7.83
2019-01-13T15:57:09.567Z,7.67
2019-01-13T15:59:40.464Z,7.47
2019-01-13T16:02:11.585Z,8.23
2019-01-13T16:04:42.366Z,7.60
2019-01-13T16:07:15.354Z,7.30
2019-01-13T16:09:47.216Z,8.57
2019-01-13T16:12:17.864Z,7.07
2019-01-13T16:14:48.592Z,7.50
2019-01-13T16:17:19.261Z,8.03
2019-01-13T16:19:49.878Z,7.27
2019-01-13T16:22:21.031Z,7.93
2019-01-13T16:24:53.577Z,8.17
2019-01-13T16:27:24.403Z,8.83
2019-01-13T16:30:02.838Z,8.07
2019-01-13T16:32:39.299Z,8.57
2019-01-13T16:35:12.261Z,8.10
2019-01-13T16:37:43.060Z,8.43
2019-01-13T16:40:15.930Z,8.67
2019-01-13T16:42:47.158Z,9.73
2019-01-13T16:45:20.959Z,8.53
2019-01-13T16:47:53.215Z,7.30
2019-01-13T16:50:25.349Z,7.53
2019-01-13T16:52:57.945Z,8.13
2019-01-13T16:55:29.000Z,8.47
2019-01-13T16:58:02.590Z,8.10
2019-01-13T17:00:36.258Z,8.17
2019-01-13T17:03:09.454Z,6.97
2019-01-13T17:05:41.608Z,6.73
2019-01-13T17:08:15.388Z,6.90
2019-01-13T17:10:46.118Z,7.67
2019-01-13T17:13:18.155Z,7.10
2019-01-13T17:15:51.342Z,7.53
2019-01-13T17:18:25.513Z,7.67
2019-01-13T17:20:56.138Z,7.87
2019-01-13T17:23:29.365Z,8.43
2019-01-13T17:26:00.215Z,7.27
2019-01-13T17:28:31.059Z,7.93
2019-01-13T17:31:01.945Z,7.77
2019-01-13T17:33:32.589Z,6.97
2019-01-13T17:36:03.355Z,6.23
2019-01-13T17:38:40.251Z,5.97
2019-01-13T17:41:12.254Z,5.23
2019-01-13T17:43:46.301Z,4.10
2019-01-13T17:46:19.533Z,4.93
2019-01-13T17:48:51.858Z,4.60
2019-01-13T17:51:22.602Z,4.50
2019-01-13T17:53:54.466Z,4.50
2019-01-13T17:56:26.284Z,4.03
2019-01-13T17:58:57.061Z,4.10
2019-01-13T18:01:40.908Z,4.80
2019-01-13T18:04:13.172Z,5.43
2019-01-13T18:06:45.907Z,3.37
2019-01-13T18:55:07.031Z,1.73
2019-01-13T18:57:37.660Z,1.80
2019-01-13T19:00:11.356Z,1.40
2019-01-13T19:02:42.268Z,1.63
2019-01-13T19:05:13.851Z,2.60
2019-01-13T19:07:46.932Z,2.43
2019-01-13T19:10:30.224Z,1.90
2019-01-13T19:13:16.742Z,1.30
2019-01-13T19:15:51.457Z,1.63
2019-01-13T19:18:29.967Z,1.60
2019-01-13T19:21:04.149Z,1.30
2019-01-13T19:23:37.292Z,1.50
2019-01-13T19:26:10.556Z,1.60
2019-01-13T19:28:44.360Z,1.67
2019-01-13T19:31:17.102Z,2.10
2019-01-13T19:33:50.462Z,2.33
2019-01-13T19:36:23.300Z,2.93
2019-01-13T19:38:56.032Z,3.10
2019-01-13T19:41:29.761Z,2.40
2019-01-13T19:44:06.843Z,2.77
2019-01-13T19:46:39.503Z,2.63
2019-01-13T19:49:14.271Z,2.70
2019-01-13T19:51:48.420Z,2.87
2019-01-13T19:54:22.902Z,2.20
2019-01-13T19:56:57.644Z,2.30
2019-01-13T19:59:31.841Z,2.47
2019-01-13T20:02:08.065Z,2.37
2019-01-13T20:04:44.652Z,2.60
2019-01-13T20:07:22.241Z,3.13
2019-01-13T20:09:57.858Z,2.37
2019-01-13T20:12:33.700Z,2.93
2019-01-13T20:15:09.887Z,2.87
2019-01-13T20:17:48.322Z,3.53
2019-01-13T20:20:22.386Z,3.00
2019-01-13T20:22:58.957Z,2.87
2019-01-13T20:25:34.589Z,2.70
2019-01-13T20:28:10.123Z,2.93
2019-01-13T20:30:43.839Z,3.13
2019-01-13T20:33:17.932Z,2.87
2019-01-13T20:35:51.568Z,3.17
2019-01-13T20:38:25.784Z,2.73
2019-01-13T20:41:00.841Z,3.10
2019-01-13T20:43:35.447Z,2.77
2019-01-13T20:46:12.944Z,3.30
2019-01-13T20:48:47.970Z,3.97
2019-01-13T20:51:31.980Z,2.97
2019-01-13T20:54:22.615Z,3.23
2019-01-13T20:56:59.863Z,3.13
2019-01-13T20:59:37.941Z,3.60
2019-01-13T21:02:16.433Z,3.77
2019-01-13T21:04:56.186Z,3.47
2019-01-13T21:07:32.950Z,3.33
2019-01-13T21:10:12.161Z,3.07
2019-01-13T21:12:48.869Z,3.57
2019-01-13T21:15:24.472Z,3.77
2019-01-13T21:18:06.398Z,3.37
2019-01-13T21:20:45.641Z,4.67
2019-01-13T21:23:19.162Z,3.97
2019-01-13T21:25:54.713Z,3.87
2019-01-13T21:28:44.226Z,4.20
2019-01-13T21:31:23.820Z,4.53
2019-01-13T21:34:00.148Z,4.07
2019-01-13T21:36:45.945Z,4.00
2019-01-13T21:39:29.432Z,4.57
2019-01-13T21:42:08.009Z,5.17
2019-01-13T21:44:45.370Z,4.07
2019-01-13T21:47:22.331Z,4.07
2019-01-13T21:50:01.273Z,4.70
2019-01-13T21:52:37.294Z,4.10
2019-01-13T21:55:13.090Z,4.47
2019-01-13T21:57:58.271Z,4.73
2019-01-13T22:00:35.725Z,4.87
2019-01-13T22:03:13.236Z,4.63
2019-01-13T22:05:51.057Z,5.27
2019-01-13T22:08:29.435Z,3.90
2019-01-13T22:11:03.530Z,4.20
2019-01-13T22:13:36.778Z,5.10
2019-01-13T22:16:15.908Z,4.07
2019-01-13T22:18:47.173Z,4.70
2019-01-13T22:21:21.935Z,3.93
2019-01-13T22:23:57.950Z,4.30
2019-01-13T22:26:31.601Z,3.63
2019-01-13T22:29:04.895Z,4.87
2019-01-13T22:31:37.850Z,5.17
2019-01-13T22:34:12.953Z,4.47
2019-01-13T22:36:48.688Z,4.13
2019-01-13T22:39:23.957Z,4.37
2019-01-13T22:41:57.241Z,3.50
2019-01-13T22:44:31.948Z,3.90
2019-01-13T22:47:06.502Z,3.70
2019-01-13T22:49:37.416Z,3.47
2019-01-13T22:52:13.905Z,4.47
2019-01-13T22:54:47.594Z,3.30
2019-01-13T22:57:23.401Z,3.53
2019-01-13T22:59:57.615Z,2.23
2019-01-13T23:02:31.122Z,2.33
2019-01-13T23:05:02.464Z,2.20
2019-01-13T23:07:36.391Z,1.90
2019-01-13T23:10:07.980Z,1.97
2019-01-13T23:12:40.094Z,2.80
2019-01-13T23:15:12.770Z,1.90
2019-01-13T23:17:46.162Z,2.17
2019-01-13T23:20:17.247Z,2.33
2019-01-13T23:22:50.506Z,2.23
2019-01-13T23:25:23.793Z,1.90
2019-01-13T23:27:55.257Z,2.70
2019-01-13T23:30:28.434Z,2.30
2019-01-13T23:33:03.616Z,2.53
2019-01-13T23:35:37.442Z,2.30
2019-01-13T23:38:10.589Z,3.23
2019-01-13T23:40:44.017Z,3.63
2019-01-13T23:43:17.202Z,2.73
2019-01-13T23:45:50.497Z,2.50
2019-01-13T23:48:23.190Z,2.97
2019-01-13T23:50:56.753Z,3.27
2019-01-13T23:53:30.565Z,2.63
2019-01-13T23:56:03.735Z,2.50
2019-01-13T23:58:37.650Z,2.80
